Time;durP1;ratioP1;P1;durP2;ratioP2;P2;SDS_P1;SDS_P2;PMS_P1;PMS_P2;Temp;Humidity;BMP_temperature;BMP_pressure;BME280_temperature;BME280_humidity;BME280_pressure;Samples;Min_cycle;Max_cycle;Signal;HPM_P1;HPM_P2
2022/08/05 00:02:04;;;;;;;;;;;;;;;22.12;60.14;101372.44;5020926;28;20440;-91
2022/08/05 00:04:29;;;;;;;;;;;;;;;22.12;58.27;101365.22;5025231;28;19927;-91
2022/08/05 00:06:54;;;;;;;;;;;;;;;21.98;58.34;101372.66;5027553;28;19921;-90
2022/08/05 00:09:20;;;;;;;;;;;;;;;21.90;58.90;101366.03;5024033;28;19917;-88
2022/08/05 00:11:45;;;;;;;;;;;;;;;22.01;60.56;101367.00;5024640;28;20012;-90
2022/08/05 00:14:11;;;;;;;;;;;;;;;22.08;60.61;101365.53;5007294;28;20368;-91
2022/08/05 00:16:36;;;;;;;;;;;;;;;22.09;60.95;101368.09;5030647;28;20376;-90
2022/08/05 00:19:01;;;;;;;;;;;;;;;22.11;60.71;101365.31;5030537;28;19925;-90
2022/08/05 00:21:26;;;;;;;;;;;;;;;22.15;60.61;101369.50;5026072;28;19975;-90
2022/08/05 00:23:51;;;;;;;;;;;;;;;22.19;60.68;101379.03;5027611;28;19961;-89
2022/08/05 00:26:18;;;;;;;;;;;;;;;22.22;61.10;101378.78;5027844;28;19917;-89
2022/08/05 00:28:43;;;;;;;;;;;;;;;22.19;60.89;101379.03;5028099;28;19929;-91
2022/08/05 00:31:09;;;;;;;;;;;;;;;22.13;62.23;101369.59;5013116;28;20391;-90
2022/08/05 00:33:34;;;;;;;;;;;;;;;22.11;60.96;101365.31;5032107;28;20602;-92
2022/08/05 00:35:59;;;;;;;;;;;;;;;22.11;61.91;101365.31;5025828;28;20396;-91
2022/08/05 00:38:25;;;;;;;;;;;;;;;22.09;62.42;101370.78;5024067;28;19935;-90
2022/08/05 00:40:51;;;;;;;;;;;;;;;22.04;61.90;101370.31;5028112;28;20308;-90
2022/08/05 00:43:17;;;;;;;;;;;;;;;21.96;60.75;101371.91;5028037;28;20004;-91
2022/08/05 00:45:42;;;;;;;;;;;;;;;21.87;61.17;101376.22;5032254;28;20337;-90
2022/08/05 00:48:09;;;;;;;;;;;;;;;21.89;62.18;101374.22;5029294;28;20635;-91
2022/08/05 00:50:34;;;;;;;;;;;;;;;21.95;62.85;101375.56;5025741;28;20373;-90
2022/08/05 00:52:59;;;;;;;;;;;;;;;21.97;61.61;101379.88;5030231;28;19924;-89
2022/08/05 00:55:24;;;;;;;;;;;;;;;21.98;62.75;101376.19;5028874;28;20059;-90
2022/08/05 00:57:49;;;;;;;;;;;;;;;21.92;62.18;101365.94;5030542;28;20824;-91
2022/08/05 01:00:15;;;;;;;;;;;;;;;21.90;62.76;101367.88;5024725;28;20398;-91
2022/08/05 01:02:40;;;;;;;;;;;;;;;21.89;63.56;101374.22;5029958;28;20365;-91
2022/08/05 01:05:05;;;;;;;;;;;;;;;21.89;61.83;101375.09;5029701;28;19917;-91
2022/08/05 01:07:31;;;;;;;;;;;;;;;21.77;62.00;101373.34;5031420;28;19917;-91
2022/08/05 01:09:56;;;;;;;;;;;;;;;21.64;61.70;101369.94;5025055;28;19917;-90
2022/08/05 01:12:23;;;;;;;;;;;;;;;21.55;62.12;101374.19;5030148;28;20273;-88
2022/08/05 01:15:04;;;;;;;;;;;;;;;21.49;62.05;101388.09;5025896;28;19921;-91
2022/08/05 01:17:36;;;;;;;;;;;;;;;21.46;63.96;101384.81;5025848;28;19928;-88
2022/08/05 01:20:20;;;;;;;;;;;;;;;21.50;63.04;101397.06;5027234;28;19923;-90
2022/08/05 01:22:45;;;;;;;;;;;;;;;21.55;62.58;101401.09;5025428;28;20478;-91
2022/08/05 01:25:26;;;;;;;;;;;;;;;21.55;64.33;101402.94;5025280;28;19956;-91
2022/08/05 01:28:03;;;;;;;;;;;;;;;21.53;63.20;101421.03;5027552;28;19917;-91
2022/08/05 01:30:31;;;;;;;;;;;;;;;21.56;60.83;101431.56;5021390;28;20310;-91
2022/08/05 01:32:57;;;;;;;;;;;;;;;21.55;61.62;101441.47;5012190;28;20398;-90
2022/08/05 01:35:25;;;;;;;;;;;;;;;21.54;60.35;101461.28;5029139;28;20008;-91
2022/08/05 01:37:52;;;;;;;;;;;;;;;21.56;61.50;101459.31;5030002;28;20373;-91
2022/08/05 01:40:18;;;;;;;;;;;;;;;21.62;60.58;101460.69;5012325;28;19921;-90
2022/08/05 01:42:44;;;;;;;;;;;;;;;21.59;62.23;101440.25;5026933;28;19932;-91
2022/08/05 01:45:11;;;;;;;;;;;;;;;21.51;63.67;101431.06;5025187;28;19921;-88
2022/08/05 01:47:37;;;;;;;;;;;;;;;21.49;62.59;101428.47;5031283;28;19917;-90
2022/08/05 01:50:05;;;;;;;;;;;;;;;21.48;64.90;101425.91;5025763;28;19917;-90
2022/08/05 01:52:33;;;;;;;;;;;;;;;21.49;63.87;101425.78;5027631;28;19921;-91
2022/08/05 01:55:01;;;;;;;;;;;;;;;21.52;63.88;101433.63;5028145;28;20579;-90
2022/08/05 01:57:28;;;;;;;;;;;;;;;21.55;61.38;101427.16;5026956;28;19917;-90
2022/08/05 01:59:56;;;;;;;;;;;;;;;21.49;61.01;101431.16;5028950;28;19963;-91
2022/08/05 02:02:22;;;;;;;;;;;;;;;21.44;60.80;101427.09;5009606;28;20000;-90
2022/08/05 02:04:47;;;;;;;;;;;;;;;21.39;60.28;101424.78;5029295;28;19999;-90
2022/08/05 02:07:12;;;;;;;;;;;;;;;21.29;61.78;101410.28;5021419;28;20335;-92
2022/08/05 02:09:38;;;;;;;;;;;;;;;21.34;61.67;101405.44;5027458;28;20334;-89
2022/08/05 02:12:15;;;;;;;;;;;;;;;21.43;63.14;101382.34;5024621;28;19918;-92
2022/08/05 02:14:48;;;;;;;;;;;;;;;21.50;64.68;101365.63;5027530;28;20463;-91
2022/08/05 02:17:30;;;;;;;;;;;;;;;21.54;64.32;101383.25;5010806;28;19917;-90
2022/08/05 02:19:59;;;;;;;;;;;;;;;21.53;64.95;101388.75;5025750;28;19925;-89
2022/08/05 02:22:29;;;;;;;;;;;;;;;21.53;63.63;101404.88;5026815;28;19971;-91
2022/08/05 02:25:00;;;;;;;;;;;;;;;21.46;62.91;101423.34;5020576;28;19922;-90
2022/08/05 02:27:27;;;;;;;;;;;;;;;21.45;61.49;101393.84;5025963;28;19921;-91
2022/08/05 02:29:53;;;;;;;;;;;;;;;21.35;63.79;101369.50;5025258;28;19932;-90
2022/08/05 02:32:19;;;;;;;;;;;;;;;21.33;62.07;101395.66;5009563;28;19955;-91
2022/08/05 02:34:44;;;;;;;;;;;;;;;21.38;63.80;101421.22;5011155;28;19960;-89
2022/08/05 02:37:11;;;;;;;;;;;;;;;21.44;64.53;101416.34;5023548;28;19967;-90
2022/08/05 02:39:38;;;;;;;;;;;;;;;21.37;61.23;101429.44;5033380;28;19921;-90
2022/08/05 02:42:05;;;;;;;;;;;;;;;21.37;63.81;101424.91;5024208;28;19925;-90
2022/08/05 02:44:31;;;;;;;;;;;;;;;21.43;61.97;101428.09;5007585;28;20392;-90
2022/08/05 02:46:57;;;;;;;;;;;;;;;21.44;62.42;101429.81;5023065;28;19921;-90
2022/08/05 02:49:24;;;;;;;;;;;;;;;21.43;63.20;101433.47;5026428;28;19917;-90
2022/08/05 02:51:49;;;;;;;;;;;;;;;21.43;63.56;101417.34;5028698;28;19909;-90
2022/08/05 02:54:15;;;;;;;;;;;;;;;21.41;64.36;101414.78;5009277;28;19928;-90
2022/08/05 02:56:41;;;;;;;;;;;;;;;21.42;65.04;101415.63;5028446;28;19921;-90
2022/08/05 02:59:09;;;;;;;;;;;;;;;21.38;64.58;101404.22;5025388;28;20315;-91
2022/08/05 03:01:39;;;;;;;;;;;;;;;21.32;65.27;101392.13;5032117;28;20363;-91
2022/08/05 03:04:05;;;;;;;;;;;;;;;21.23;65.12;101392.78;5028135;28;19944;-89
2022/08/05 03:06:30;;;;;;;;;;;;;;;21.13;64.78;101384.56;5010292;28;19991;-90
2022/08/05 03:08:56;;;;;;;;;;;;;;;21.07;65.15;101384.16;5028285;28;20364;-90
2022/08/05 03:11:23;;;;;;;;;;;;;;;21.10;65.12;101384.78;5024197;28;20453;-89
2022/08/05 03:13:49;;;;;;;;;;;;;;;21.11;65.20;101388.31;5013534;28;20369;-91
2022/08/05 03:16:14;;;;;;;;;;;;;;;21.11;64.77;101391.03;5010098;28;19924;-91
2022/08/05 03:18:39;;;;;;;;;;;;;;;21.10;64.96;101392.84;5023015;28;19921;-90
2022/08/05 03:21:05;;;;;;;;;;;;;;;21.04;64.48;101405.91;5022767;28;19925;-91
2022/08/05 03:23:31;;;;;;;;;;;;;;;20.98;64.16;101412.59;5022972;28;20403;-91
2022/08/05 03:25:56;;;;;;;;;;;;;;;20.97;64.82;101420.78;5008266;28;19970;-92
2022/08/05 03:28:22;;;;;;;;;;;;;;;20.96;64.49;101425.28;5031347;28;19920;-90
2022/08/05 03:30:48;;;;;;;;;;;;;;;21.00;64.88;101417.88;5028197;28;20288;-90
2022/08/05 03:33:13;;;;;;;;;;;;;;;21.00;63.99;101426.78;5010706;28;19925;-91
2022/08/05 03:35:38;;;;;;;;;;;;;;;20.98;64.40;101419.78;5024576;28;20413;-90
2022/08/05 03:38:04;;;;;;;;;;;;;;;20.94;62.53;101426.38;5028676;28;19974;-90
2022/08/05 03:40:29;;;;;;;;;;;;;;;20.93;64.44;101435.41;5021093;28;19928;-90
2022/08/05 03:42:54;;;;;;;;;;;;;;;20.93;64.36;101440.78;5026882;28;19972;-90
2022/08/05 03:45:19;;;;;;;;;;;;;;;20.92;64.00;101439.06;5024268;28;19917;-90
2022/08/05 03:47:45;;;;;;;;;;;;;;;20.90;62.78;101433.81;5011229;28;19921;-89
2022/08/05 03:50:10;;;;;;;;;;;;;;;20.84;64.34;101420.81;5026515;28;19924;-89
2022/08/05 03:52:41;;;;;;;;;;;;;;;20.82;64.26;101422.78;5027228;28;19924;-89
2022/08/05 03:55:09;;;;;;;;;;;;;;;20.82;64.82;101420.09;5019167;28;20506;-89
2022/08/05 03:57:35;;;;;;;;;;;;;;;20.83;65.08;101405.66;5009412;28;20051;-88
2022/08/05 04:00:04;;;;;;;;;;;;;;;20.82;64.04;101407.50;5023603;28;20416;-89
2022/08/05 04:02:31;;;;;;;;;;;;;;;20.78;65.21;101408.69;5017670;28;19917;-89
2022/08/05 04:04:57;;;;;;;;;;;;;;;20.82;63.88;101396.75;5023822;28;19956;-89
2022/08/05 04:07:22;;;;;;;;;;;;;;;20.88;63.51;101400.81;5024235;28;20440;-89
2022/08/05 04:09:48;;;;;;;;;;;;;;;20.89;63.21;101407.94;5025374;28;19921;-89
2022/08/05 04:12:13;;;;;;;;;;;;;;;20.94;63.44;101415.63;5025656;28;19928;-89
2022/08/05 04:14:39;;;;;;;;;;;;;;;20.97;63.49;101420.78;5022957;28;19924;-89
2022/08/05 04:17:07;;;;;;;;;;;;;;;20.94;64.42;101412.94;5025811;28;19924;-89
2022/08/05 04:19:40;;;;;;;;;;;;;;;20.94;63.36;101407.56;5027195;28;19925;-89
2022/08/05 04:22:05;;;;;;;;;;;;;;;20.84;64.48;101402.00;5009269;28;19921;-90
2022/08/05 04:24:30;;;;;;;;;;;;;;;20.82;64.92;101410.19;5019022;28;19917;-89
2022/08/05 04:26:55;;;;;;;;;;;;;;;20.86;64.34;101417.06;5007198;28;20434;-89
2022/08/05 04:29:21;;;;;;;;;;;;;;;20.89;64.25;101413.31;5026481;28;20016;-89
2022/08/05 04:31:46;;;;;;;;;;;;;;;20.83;64.13;101416.41;5006857;28;19917;-89
2022/08/05 04:34:11;;;;;;;;;;;;;;;20.76;65.27;101412.50;5026109;28;20360;-89
2022/08/05 04:36:36;;;;;;;;;;;;;;;20.76;65.56;101407.13;5010801;28;19953;-89
2022/08/05 04:39:02;;;;;;;;;;;;;;;20.73;65.79;101405.50;5028235;28;19944;-88
2022/08/05 04:41:27;;;;;;;;;;;;;;;20.72;65.34;101411.84;5022825;28;19921;-89
2022/08/05 04:43:52;;;;;;;;;;;;;;;20.77;65.36;101431.19;5005000;28;19925;-88
2022/08/05 04:46:17;;;;;;;;;;;;;;;20.76;63.65;101434.00;5024082;28;19917;-90
2022/08/05 04:48:42;;;;;;;;;;;;;;;20.68;63.68;101431.00;5027013;28;20392;-90
2022/08/05 04:51:08;;;;;;;;;;;;;;;20.60;65.35;101428.84;5021164;28;20452;-89
2022/08/05 04:53:34;;;;;;;;;;;;;;;20.61;65.31;101430.56;5026329;28;20846;-88
2022/08/05 04:55:59;;;;;;;;;;;;;;;20.68;66.10;101431.00;5025499;28;20008;-89
2022/08/05 04:58:24;;;;;;;;;;;;;;;20.72;65.31;101427.97;5027253;28;19929;-90
2022/08/05 05:00:49;;;;;;;;;;;;;;;20.71;65.58;101428.09;5028920;28;20071;-89
2022/08/05 05:03:15;;;;;;;;;;;;;;;20.71;65.29;101425.41;5027166;28;19929;-89
2022/08/05 05:05:40;;;;;;;;;;;;;;;20.71;66.47;101428.09;5030110;28;20303;-87
2022/08/05 05:08:09;;;;;;;;;;;;;;;20.76;66.18;101434.00;5027772;28;19932;-89
2022/08/05 05:10:40;;;;;;;;;;;;;;;20.81;65.93;101426.44;5029753;28;19917;-88
2022/08/05 05:13:06;;;;;;;;;;;;;;;20.88;65.52;101438.44;5026246;28;19921;-88
2022/08/05 05:15:31;;;;;;;;;;;;;;;20.95;65.35;101434.34;5028799;28;19963;-88
2022/08/05 05:17:56;;;;;;;;;;;;;;;21.05;65.34;101426.44;5018400;28;20016;-90
2022/08/05 05:20:22;;;;;;;;;;;;;;;21.09;64.51;101431.47;5012547;28;19924;-89
2022/08/05 05:22:47;;;;;;;;;;;;;;;21.13;64.69;101438.34;5026606;28;19924;-88
2022/08/05 05:25:13;;;;;;;;;;;;;;;21.15;64.77;101430.16;5020527;28;19987;-88
2022/08/05 05:27:39;;;;;;;;;;;;;;;21.17;64.68;101441.66;5028956;28;19917;-89
2022/08/05 05:30:05;;;;;;;;;;;;;;;21.17;63.78;101449.75;5010016;28;20030;-88
2022/08/05 05:32:30;;;;;;;;;;;;;;;21.13;65.04;101442.88;5019451;28;20007;-88
2022/08/05 05:34:55;;;;;;;;;;;;;;;21.06;64.43;101439.75;5027905;28;20051;-89
2022/08/05 05:37:21;;;;;;;;;;;;;;;20.94;64.12;101440.69;5028070;28;19922;-89
2022/08/05 05:39:46;;;;;;;;;;;;;;;20.86;64.59;101443.94;5027012;28;19928;-88
2022/08/05 05:42:11;;;;;;;;;;;;;;;20.83;65.82;101451.38;5026235;28;19932;-88
2022/08/05 05:44:36;;;;;;;;;;;;;;;20.84;65.12;101453.97;5026967;28;19921;-88
2022/08/05 05:47:01;;;;;;;;;;;;;;;20.89;65.50;101457.16;5026950;28;19925;-88
2022/08/05 05:49:27;;;;;;;;;;;;;;;20.87;65.35;101464.47;5014562;28;19928;-89
2022/08/05 05:51:52;;;;;;;;;;;;;;;20.81;64.54;101464.94;5024262;28;19967;-88
2022/08/05 05:54:18;;;;;;;;;;;;;;;20.77;64.67;101468.81;5021901;28;19944;-89
2022/08/05 05:56:43;;;;;;;;;;;;;;;20.73;63.92;101463.75;5027237;28;20018;-89
2022/08/05 05:59:08;;;;;;;;;;;;;;;20.71;64.27;101471.94;5025797;28;19986;-89
2022/08/05 06:01:34;;;;;;;;;;;;;;;20.74;65.55;101482.44;5017553;28;20304;-89
2022/08/05 06:04:00;;;;;;;;;;;;;;;20.78;64.23;101475.03;5021903;28;19924;-89
2022/08/05 06:06:25;;;;;;;;;;;;;;;20.78;64.67;101475.03;5011032;28;19930;-88
2022/08/05 06:08:50;;;;;;;;;;;;;;;20.76;63.93;101477.84;5024709;28;19925;-88
2022/08/05 06:11:15;;;;;;;;;;;;;;;20.72;63.32;101481.72;5026942;28;19925;-89
2022/08/05 06:13:41;;;;;;;;;;;;;;;20.68;63.70;101480.22;5026675;28;19917;-88
2022/08/05 06:16:06;;;;;;;;;;;;;;;20.70;64.24;101478.25;5025338;28;19921;-91
2022/08/05 06:18:31;;;;;;;;;;;;;;;20.77;64.74;101479.56;5032122;28;19923;-89
2022/08/05 06:20:57;;;;;;;;;;;;;;;20.82;64.29;101477.38;5026644;28;19949;-89
2022/08/05 06:23:22;;;;;;;;;;;;;;;20.86;65.05;101478.88;5027973;28;20494;-89
2022/08/05 06:25:47;;;;;;;;;;;;;;;20.85;64.72;101479.84;5025624;28;20020;-88
2022/08/05 06:28:13;;;;;;;;;;;;;;;20.88;63.47;101485.00;5029098;28;19920;-89
2022/08/05 06:30:38;;;;;;;;;;;;;;;20.89;64.16;101481.34;5022905;28;19926;-89
2022/08/05 06:33:03;;;;;;;;;;;;;;;20.97;63.71;101485.28;5029242;28;19943;-89
2022/08/05 06:35:28;;;;;;;;;;;;;;;21.03;63.25;101476.75;5025362;28;20020;-89
2022/08/05 06:37:53;;;;;;;;;;;;;;;21.08;62.41;101482.69;5024591;28;19931;-89
2022/08/05 06:40:19;;;;;;;;;;;;;;;21.16;63.45;101488.34;5007365;28;20352;-89
2022/08/05 06:42:44;;;;;;;;;;;;;;;21.26;63.95;101491.19;5029753;28;20007;-89
2022/08/05 06:45:09;;;;;;;;;;;;;;;21.41;63.60;101505.38;5023540;28;19970;-90
2022/08/05 06:47:35;;;;;;;;;;;;;;;21.59;62.73;101503.97;5029416;28;20043;-90
2022/08/05 06:50:00;;;;;;;;;;;;;;;21.70;62.42;101506.72;5011708;28;20292;-88
2022/08/05 06:52:25;;;;;;;;;;;;;;;21.77;63.18;101507.09;5026586;28;20398;-89
2022/08/05 06:54:50;;;;;;;;;;;;;;;21.85;62.47;101507.34;5024270;28;19917;-90
2022/08/05 06:57:17;;;;;;;;;;;;;;;21.96;62.27;101517.28;5016567;28;20331;-89
2022/08/05 06:59:42;;;;;;;;;;;;;;;22.07;62.23;101526.28;5024060;28;19968;-90
2022/08/05 07:02:08;;;;;;;;;;;;;;;22.15;61.54;101529.25;5020872;28;19956;-89
2022/08/05 07:04:33;;;;;;;;;;;;;;;22.22;61.17;101529.63;5027200;28;20387;-90
2022/08/05 07:06:58;;;;;;;;;;;;;;;22.23;61.98;101535.88;5009461;28;20370;-90
2022/08/05 07:09:23;;;;;;;;;;;;;;;22.32;60.96;101536.00;5009664;28;21314;-90
2022/08/05 07:11:49;;;;;;;;;;;;;;;22.36;60.86;101542.00;5025619;28;19924;-90
2022/08/05 07:16:59;;;;;;;;;;;;;;;22.46;61.19;101542.16;5021559;28;19928;-89
2022/08/05 07:19:28;;;;;;;;;;;;;;;22.49;61.00;101548.16;5018970;28;19963;-89
2022/08/05 07:21:53;;;;;;;;;;;;;;;22.53;60.85;101549.63;5024309;28;20328;-90
2022/08/05 07:24:19;;;;;;;;;;;;;;;22.63;61.43;101539.81;5025901;28;19922;-88
2022/08/05 07:26:44;;;;;;;;;;;;;;;22.77;60.44;101543.25;5020857;28;19963;-90
2022/08/05 07:29:10;;;;;;;;;;;;;;;22.88;59.99;101549.50;5005567;28;20015;-89
2022/08/05 07:31:35;;;;;;;;;;;;;;;23.03;60.42;101550.09;5016098;28;19963;-89
2022/08/05 07:34:00;;;;;;;;;;;;;;;23.19;59.45;101559.66;5019132;28;20288;-90
2022/08/05 07:36:26;;;;;;;;;;;;;;;23.29;59.13;101550.69;5024548;28;19932;-89
2022/08/05 07:38:51;;;;;;;;;;;;;;;23.20;58.66;101564.94;5027744;28;19932;-89
2022/08/05 07:41:18;;;;;;;;;;;;;;;23.19;58.24;101557.81;5023682;28;19921;-88
2022/08/05 07:43:43;;;;;;;;;;;;;;;23.29;58.38;101561.47;5028845;28;20007;-89
2022/08/05 07:46:08;;;;;;;;;;;;;;;23.46;58.54;101570.88;5023883;28;19913;-89
2022/08/05 07:48:33;;;;;;;;;;;;;;;23.69;57.91;101577.09;5027728;28;20023;-89
2022/08/05 07:50:59;;;;;;;;;;;;;;;23.76;57.19;101575.59;5023562;28;19936;-88
2022/08/05 07:53:24;;;;;;;;;;;;;;;23.84;56.69;101574.94;5026127;28;19917;-89
2022/08/05 07:55:49;;;;;;;;;;;;;;;24.02;56.58;101577.94;5010487;28;20105;-89
2022/08/05 07:58:15;;;;;;;;;;;;;;;24.53;55.22;101579.81;5021711;28;19931;-89
2022/08/05 08:00:40;;;;;;;;;;;;;;;24.72;53.51;101584.50;5006981;28;19917;-89
2022/08/05 08:03:09;;;;;;;;;;;;;;;24.96;53.83;101576.91;5021972;28;19921;-89
2022/08/05 08:05:34;;;;;;;;;;;;;;;25.05;53.27;101575.22;5008803;28;20657;-89
2022/08/05 08:08:00;;;;;;;;;;;;;;;25.06;51.72;101574.22;5028920;28;20010;-90
2022/08/05 08:10:25;;;;;;;;;;;;;;;25.28;50.83;101582.16;5018670;28;19925;-89
2022/08/05 08:12:50;;;;;;;;;;;;;;;25.34;50.55;101584.31;5022127;28;20289;-89
2022/08/05 08:15:16;;;;;;;;;;;;;;;25.53;51.08;101585.34;5023709;28;19925;-88
2022/08/05 08:17:42;;;;;;;;;;;;;;;25.79;50.39;101588.38;5021779;28;20288;-89
2022/08/05 08:20:07;;;;;;;;;;;;;;;26.09;50.55;101590.94;5022281;28;19949;-88
2022/08/05 08:22:32;;;;;;;;;;;;;;;26.24;50.33;101594.03;5019411;28;20565;-88
2022/08/05 08:24:58;;;;;;;;;;;;;;;26.58;49.40;101601.69;5019598;28;19924;-89
2022/08/05 08:27:23;;;;;;;;;;;;;;;27.16;49.03;101596.06;5026382;28;21044;-89
2022/08/05 08:29:48;;;;;;;;;;;;;;;27.12;48.23;101605.53;5024859;28;19921;-89
2022/08/05 08:32:14;;;;;;;;;;;;;;;26.86;47.41;101610.72;5019011;28;19921;-89
2022/08/05 08:34:39;;;;;;;;;;;;;;;26.71;48.37;101613.06;5009730;28;19987;-89
2022/08/05 08:37:04;;;;;;;;;;;;;;;26.59;49.12;101620.56;5026164;28;19987;-89
2022/08/05 08:39:29;;;;;;;;;;;;;;;26.46;48.61;101620.00;5013901;28;19937;-89
2022/08/05 08:41:55;;;;;;;;;;;;;;;26.34;48.25;101621.13;5027955;28;19931;-90
2022/08/05 08:44:22;;;;;;;;;;;;;;;26.28;48.70;101619.88;5009384;28;19917;-89
2022/08/05 08:46:47;;;;;;;;;;;;;;;26.30;47.76;101628.72;5029913;28;20976;-89
2022/08/05 08:49:13;;;;;;;;;;;;;;;26.34;47.70;101627.41;5030799;28;19917;-89
2022/08/05 08:51:40;;;;;;;;;;;;;;;26.58;48.39;101631.53;5029566;28;20277;-89
2022/08/05 08:54:05;;;;;;;;;;;;;;;26.68;48.37;101632.38;5031188;28;19920;-89
2022/08/05 08:56:31;;;;;;;;;;;;;;;26.81;47.39;101642.88;5027918;28;19917;-89
2022/08/05 08:58:58;;;;;;;;;;;;;;;27.71;45.84;101644.91;5022461;28;20381;-89
2022/08/05 09:01:23;;;;;;;;;;;;;;;27.88;44.52;101649.50;5029194;28;19917;-88
2022/08/05 09:03:50;;;;;;;;;;;;;;;28.04;44.73;101648.81;5023744;28;20532;-88
2022/08/05 09:06:15;;;;;;;;;;;;;;;28.32;43.78;101651.44;5013937;28;19952;-89
2022/08/05 09:08:40;;;;;;;;;;;;;;;28.69;43.35;101656.69;5029251;28;20367;-89
2022/08/05 09:11:06;;;;;;;;;;;;;;;28.93;43.50;101664.97;5025948;28;19926;-89
2022/08/05 09:13:33;;;;;;;;;;;;;;;28.65;42.95;101663.44;5027304;28;19932;-89
2022/08/05 09:15:58;;;;;;;;;;;;;;;28.62;44.88;101671.91;5009797;28;19964;-89
2022/08/05 09:18:24;;;;;;;;;;;;;;;28.60;42.87;101666.66;5023711;28;19960;-89
2022/08/05 09:20:50;;;;;;;;;;;;;;;28.38;44.42;101676.16;5017143;28;19921;-89
2022/08/05 09:23:16;;;;;;;;;;;;;;;28.18;44.29;101666.44;5009125;28;19987;-88
2022/08/05 09:25:44;;;;;;;;;;;;;;;27.75;44.34;101676.22;5028935;28;19917;-89
2022/08/05 09:28:17;;;;;;;;;;;;;;;27.36;45.15;101678.28;5020809;28;19921;-88
2022/08/05 09:30:43;;;;;;;;;;;;;;;27.27;45.41;101680.03;5026278;28;19917;-89
2022/08/05 09:33:09;;;;;;;;;;;;;;;27.04;46.03;101676.78;5030615;28;19920;-89
2022/08/05 09:35:34;;;;;;;;;;;;;;;26.70;44.73;101679.19;5028989;28;19962;-91
2022/08/05 09:37:59;;;;;;;;;;;;;;;26.32;46.34;101682.78;5025774;28;19929;-90
2022/08/05 09:40:32;;;;;;;;;;;;;;;25.95;47.51;101683.50;5025501;28;19925;-90
2022/08/05 09:42:57;;;;;;;;;;;;;;;25.69;46.90;101691.25;5023769;28;19921;-89
2022/08/05 09:45:37;;;;;;;;;;;;;;;26.30;46.79;101693.78;5023101;28;20413;-89
2022/08/05 09:48:24;;;;;;;;;;;;;;;27.02;44.81;101694.25;5009652;28;19928;-89
2022/08/05 09:50:50;;;;;;;;;;;;;;;27.87;44.43;101701.31;5019893;28;19921;-89
2022/08/05 09:53:15;;;;;;;;;;;;;;;28.40;41.97;101701.34;5019509;28;19947;-89
2022/08/05 09:55:40;;;;;;;;;;;;;;;28.68;42.39;101701.25;5021641;28;20371;-89
2022/08/05 09:58:13;;;;;;;;;;;;;;;28.79;41.08;101703.69;5025522;28;20185;-89
2022/08/05 10:00:38;;;;;;;;;;;;;;;29.00;42.69;101705.19;5026277;28;20360;-90
2022/08/05 10:03:10;;;;;;;;;;;;;;;29.39;42.43;101703.72;5026695;28;19921;-89
2022/08/05 10:05:35;;;;;;;;;;;;;;;29.54;41.77;101697.63;5026204;28;20457;-90
2022/08/05 10:08:02;;;;;;;;;;;;;;;29.43;41.31;101699.66;5029213;28;20003;-89
2022/08/05 10:10:31;;;;;;;;;;;;;;;29.29;40.39;101703.00;5023545;28;20380;-89
2022/08/05 10:12:58;;;;;;;;;;;;;;;28.93;42.59;101704.97;5004894;28;19925;-90
2022/08/05 10:15:28;;;;;;;;;;;;;;;28.44;41.49;101708.16;5015355;28;20399;-90
2022/08/05 10:18:11;;;;;;;;;;;;;;;27.95;42.84;101712.28;5027537;28;19919;-89
2022/08/05 10:20:42;;;;;;;;;;;;;;;27.62;40.91;101711.03;5025867;28;20564;-89
2022/08/05 10:23:09;;;;;;;;;;;;;;;27.44;41.39;101708.25;5027785;28;19924;-90
2022/08/05 10:25:34;;;;;;;;;;;;;;;27.25;40.26;101717.34;5026279;28;19925;-91
2022/08/05 10:28:00;;;;;;;;;;;;;;;26.93;38.19;101713.13;5023140;28;19987;-90
2022/08/05 10:30:25;;;;;;;;;;;;;;;27.01;41.09;101711.56;5025215;28;20377;-89
2022/08/05 10:32:52;;;;;;;;;;;;;;;27.67;39.95;101725.84;5028194;28;20031;-89
2022/08/05 10:35:17;;;;;;;;;;;;;;;28.44;38.23;101716.31;5023694;28;19964;-89
2022/08/05 10:37:43;;;;;;;;;;;;;;;29.11;35.22;101722.13;5025754;28;20406;-89
2022/08/05 10:40:15;;;;;;;;;;;;;;;29.23;36.86;101725.41;5027707;28;19917;-89
2022/08/05 10:42:43;;;;;;;;;;;;;;;29.03;35.66;101724.78;5029003;28;19925;-89
2022/08/05 10:45:10;;;;;;;;;;;;;;;28.86;33.68;101731.97;5030169;28;20280;-90
2022/08/05 10:47:43;;;;;;;;;;;;;;;28.53;35.22;101730.84;5024795;28;19979;-89
2022/08/05 10:50:12;;;;;;;;;;;;;;;28.30;35.58;101732.31;5024950;28;20716;-89
2022/08/05 10:52:46;;;;;;;;;;;;;;;28.35;33.22;101733.63;5027758;28;19959;-88
2022/08/05 10:55:12;;;;;;;;;;;;;;;28.23;35.42;101734.81;5026672;28;19925;-88
2022/08/05 10:57:40;;;;;;;;;;;;;;;28.18;36.33;101735.28;5021212;28;19959;-88
2022/08/05 11:00:21;;;;;;;;;;;;;;;27.94;34.01;101738.59;5027992;28;20393;-89
2022/08/05 11:03:02;;;;;;;;;;;;;;;27.82;35.65;101744.41;5021167;28;19928;-90
2022/08/05 11:05:27;;;;;;;;;;;;;;;27.79;35.38;101742.81;5020042;28;20345;-90
2022/08/05 11:07:56;;;;;;;;;;;;;;;27.96;32.72;101747.44;5025789;28;19928;-90
2022/08/05 11:10:25;;;;;;;;;;;;;;;28.18;32.76;101746.16;5026431;28;19925;-89
2022/08/05 11:12:51;;;;;;;;;;;;;;;28.05;33.10;101745.69;5025841;28;20275;-89
2022/08/05 11:15:21;;;;;;;;;;;;;;;27.87;34.28;101747.50;5025164;28;19927;-88
2022/08/05 11:17:47;;;;;;;;;;;;;;;27.92;32.51;101758.78;5026942;28;19921;-89
2022/08/05 11:20:33;;;;;;;;;;;;;;;28.07;33.67;101748.22;5026102;28;20270;-89
2022/08/05 11:22:58;;;;;;;;;;;;;;;28.56;32.96;101751.47;5023990;28;19925;-91
2022/08/05 11:25:27;;;;;;;;;;;;;;;28.89;31.54;101758.03;5024708;28;19920;-88
2022/08/05 11:27:53;;;;;;;;;;;;;;;29.00;32.63;101756.94;5008073;28;19925;-88
2022/08/05 11:30:19;;;;;;;;;;;;;;;28.92;30.99;101764.00;5027858;28;20273;-88
2022/08/05 11:32:45;;;;;;;;;;;;;;;28.91;31.57;101756.88;5026873;28;20074;-89
2022/08/05 11:35:30;;;;;;;;;;;;;;;28.95;32.20;101771.03;5025832;28;20003;-89
2022/08/05 11:37:55;;;;;;;;;;;;;;;28.60;30.58;101756.44;5025827;28;19917;-88
2022/08/05 11:40:40;;;;;;;;;;;;;;;28.30;31.03;101767.69;5025658;28;19933;-89
2022/08/05 11:43:05;;;;;;;;;;;;;;;28.85;32.26;101768.38;5024156;28;20593;-89
2022/08/05 11:45:31;;;;;;;;;;;;;;;29.36;30.75;101772.13;5025495;28;19939;-88
2022/08/05 11:47:57;;;;;;;;;;;;;;;29.66;28.25;101775.41;5020820;28;19927;-90
2022/08/05 11:50:23;;;;;;;;;;;;;;;29.61;30.81;101778.63;5008046;28;20188;-89
2022/08/05 11:52:48;;;;;;;;;;;;;;;29.69;30.36;101775.91;5027109;28;20597;-89
2022/08/05 11:55:14;;;;;;;;;;;;;;;29.40;29.63;101786.31;5006345;28;20051;-89
2022/08/05 11:57:43;;;;;;;;;;;;;;;29.51;31.22;101788.72;5022015;28;20349;-90
2022/08/05 12:00:29;;;;;;;;;;;;;;;29.17;31.48;101791.44;5021733;28;19917;-89
2022/08/05 12:02:54;;;;;;;;;;;;;;;28.53;31.73;101798.03;5023734;28;19972;-90
2022/08/05 12:05:26;;;;;;;;;;;;;;;28.77;33.24;101800.09;5023178;28;19964;-88
2022/08/05 12:07:56;;;;;;;;;;;;;;;29.36;31.54;101814.88;5023335;28;20381;-89
2022/08/05 12:10:21;;;;;;;;;;;;;;;29.15;31.92;101815.25;5030183;28;20372;-89
2022/08/05 12:12:47;;;;;;;;;;;;;;;28.70;31.20;101810.78;5025114;28;19928;-89
2022/08/05 12:15:19;;;;;;;;;;;;;;;28.60;31.70;101824.47;5009291;28;19925;-90
2022/08/05 12:17:45;;;;;;;;;;;;;;;28.98;32.63;101830.63;5020741;28;20279;-89
2022/08/05 12:20:11;;;;;;;;;;;;;;;29.29;31.69;101833.75;5024790;28;20300;-88
2022/08/05 12:22:37;;;;;;;;;;;;;;;28.94;31.56;101835.47;5010390;28;19924;-89
2022/08/05 12:25:02;;;;;;;;;;;;;;;28.48;31.84;101832.00;5029052;28;19924;-90
2022/08/05 12:27:30;;;;;;;;;;;;;;;28.14;32.84;101839.06;5031037;28;20041;-89
2022/08/05 12:30:01;;;;;;;;;;;;;;;28.23;32.02;101838.16;5032130;28;19917;-90
2022/08/05 12:32:27;;;;;;;;;;;;;;;28.48;31.14;101847.47;5027468;28;19944;-90
2022/08/05 12:34:52;;;;;;;;;;;;;;;28.71;30.51;101840.56;5030487;28;20368;-88
2022/08/05 12:37:17;;;;;;;;;;;;;;;29.28;31.08;101847.50;5030721;28;20295;-91